sensor_id;sensor_type;location;lat;lon;timestamp;temperature;humidity
23721;DHT22;42950;52.134;5.578;2022-09-09T00:04:35;16.00;99.90
23721;DHT22;42950;52.134;5.578;2022-09-09T00:07:15;16.00;99.90
23721;DHT22;42950;52.134;5.578;2022-09-09T00:09:58;16.00;99.90
23721;DHT22;42950;52.134;5.578;2022-09-09T00:12:34;16.10;99.90
23721;DHT22;42950;52.134;5.578;2022-09-09T00:15:11;16.10;99.90
23721;DHT22;42950;52.134;5.578;2022-09-09T00:17:58;16.10;99.90
23721;DHT22;42950;52.134;5.578;2022-09-09T00:23:27;16.20;99.90
23721;DHT22;42950;52.134;5.578;2022-09-09T00:26:03;16.10;99.90
23721;DHT22;42950;52.134;5.578;2022-09-09T00:28:35;16.00;99.90
23721;DHT22;42950;52.134;5.578;2022-09-09T00:31:18;16.00;99.90
23721;DHT22;42950;52.134;5.578;2022-09-09T00:33:46;16.00;99.90
23721;DHT22;42950;52.134;5.578;2022-09-09T00:36:16;16.00;99.90
23721;DHT22;42950;52.134;5.578;2022-09-09T00:38:56;16.00;99.90
23721;DHT22;42950;52.134;5.578;2022-09-09T00:44:23;16.00;99.90
23721;DHT22;42950;52.134;5.578;2022-09-09T00:49:38;15.90;99.90
23721;DHT22;42950;52.134;5.578;2022-09-09T00:52:32;15.80;99.90
23721;DHT22;42950;52.134;5.578;2022-09-09T00:57:53;15.80;99.90
23721;DHT22;42950;52.134;5.578;2022-09-09T01:05:36;15.80;99.90
23721;DHT22;42950;52.134;5.578;2022-09-09T01:08:12;15.70;99.90
23721;DHT22;42950;52.134;5.578;2022-09-09T01:10:50;15.70;99.90
23721;DHT22;42950;52.134;5.578;2022-09-09T01:13:25;15.70;99.90
23721;DHT22;42950;52.134;5.578;2022-09-09T01:15:53;15.70;99.90
23721;DHT22;42950;52.134;5.578;2022-09-09T01:18:22;15.70;99.90
23721;DHT22;42950;52.134;5.578;2022-09-09T01:26:45;15.60;99.90
23721;DHT22;42950;52.134;5.578;2022-09-09T01:29:16;15.50;99.90
23721;DHT22;42950;52.134;5.578;2022-09-09T01:31:58;15.50;99.90
23721;DHT22;42950;52.134;5.578;2022-09-09T01:34:30;15.50;99.90
23721;DHT22;42950;52.134;5.578;2022-09-09T01:37:03;15.40;99.90
23721;DHT22;42950;52.134;5.578;2022-09-09T01:39:33;15.40;99.90
23721;DHT22;42950;52.134;5.578;2022-09-09T01:42:02;15.30;99.90
23721;DHT22;42950;52.134;5.578;2022-09-09T01:44:29;15.30;99.90
23721;DHT22;42950;52.134;5.578;2022-09-09T01:46:55;15.40;99.90
23721;DHT22;42950;52.134;5.578;2022-09-09T01:49:21;15.30;99.90
23721;DHT22;42950;52.134;5.578;2022-09-09T01:51:51;15.30;99.90
23721;DHT22;42950;52.134;5.578;2022-09-09T01:54:18;15.30;99.90
23721;DHT22;42950;52.134;5.578;2022-09-09T01:59:47;15.20;99.90
23721;DHT22;42950;52.134;5.578;2022-09-09T02:04:56;15.20;99.90
23721;DHT22;42950;52.134;5.578;2022-09-09T02:07:38;15.20;99.90
23721;DHT22;42950;52.134;5.578;2022-09-09T02:12:55;15.20;99.90
23721;DHT22;42950;52.134;5.578;2022-09-09T02:18:15;15.00;99.90
23721;DHT22;42950;52.134;5.578;2022-09-09T02:20:44;15.00;99.90
23721;DHT22;42950;52.134;5.578;2022-09-09T02:23:14;15.00;99.90
23721;DHT22;42950;52.134;5.578;2022-09-09T02:25:41;15.00;99.90
23721;DHT22;42950;52.134;5.578;2022-09-09T02:28:09;15.00;99.90
23721;DHT22;42950;52.134;5.578;2022-09-09T02:30:37;15.00;99.90
23721;DHT22;42950;52.134;5.578;2022-09-09T02:33:04;14.90;99.90
23721;DHT22;42950;52.134;5.578;2022-09-09T02:35:32;14.90;99.90
23721;DHT22;42950;52.134;5.578;2022-09-09T02:38:05;14.90;99.90
23721;DHT22;42950;52.134;5.578;2022-09-09T02:40:32;14.80;99.90
23721;DHT22;42950;52.134;5.578;2022-09-09T02:42:58;14.80;99.90
23721;DHT22;42950;52.134;5.578;2022-09-09T02:45:29;14.90;99.90
23721;DHT22;42950;52.134;5.578;2022-09-09T02:48:12;14.80;99.90
23721;DHT22;42950;52.134;5.578;2022-09-09T02:51:15;14.80;99.90
23721;DHT22;42950;52.134;5.578;2022-09-09T02:53:57;14.80;99.90
23721;DHT22;42950;52.134;5.578;2022-09-09T02:56:27;14.70;99.90
23721;DHT22;42950;52.134;5.578;2022-09-09T02:58:55;14.70;99.90
23721;DHT22;42950;52.134;5.578;2022-09-09T03:01:21;14.70;99.90
23721;DHT22;42950;52.134;5.578;2022-09-09T03:03:46;14.60;99.90
23721;DHT22;42950;52.134;5.578;2022-09-09T03:06:12;14.60;99.90
23721;DHT22;42950;52.134;5.578;2022-09-09T03:08:38;14.60;99.90
23721;DHT22;42950;52.134;5.578;2022-09-09T03:11:04;14.60;99.90
23721;DHT22;42950;52.134;5.578;2022-09-09T03:13:30;14.60;99.90
23721;DHT22;42950;52.134;5.578;2022-09-09T03:15:55;14.50;99.90
23721;DHT22;42950;52.134;5.578;2022-09-09T03:18:21;14.50;99.90
23721;DHT22;42950;52.134;5.578;2022-09-09T03:20:47;14.50;99.90
23721;DHT22;42950;52.134;5.578;2022-09-09T03:23:16;14.50;99.90
23721;DHT22;42950;52.134;5.578;2022-09-09T03:25:51;14.40;99.90
23721;DHT22;42950;52.134;5.578;2022-09-09T03:28:18;14.50;99.90
23721;DHT22;42950;52.134;5.578;2022-09-09T03:30:44;14.50;99.90
23721;DHT22;42950;52.134;5.578;2022-09-09T03:33:10;14.50;99.90
23721;DHT22;42950;52.134;5.578;2022-09-09T03:35:36;14.50;99.90
23721;DHT22;42950;52.134;5.578;2022-09-09T03:38:02;14.50;99.90
23721;DHT22;42950;52.134;5.578;2022-09-09T03:40:27;14.50;99.90
23721;DHT22;42950;52.134;5.578;2022-09-09T03:42:53;14.50;99.90
23721;DHT22;42950;52.134;5.578;2022-09-09T03:45:19;14.50;99.90
23721;DHT22;42950;52.134;5.578;2022-09-09T03:47:44;14.40;99.90
23721;DHT22;42950;52.134;5.578;2022-09-09T03:50:10;14.50;99.90
23721;DHT22;42950;52.134;5.578;2022-09-09T03:52:40;14.40;99.90
23721;DHT22;42950;52.134;5.578;2022-09-09T03:55:07;14.40;99.90
23721;DHT22;42950;52.134;5.578;2022-09-09T03:57:34;14.40;99.90
23721;DHT22;42950;52.134;5.578;2022-09-09T04:00:06;14.40;99.90
23721;DHT22;42950;52.134;5.578;2022-09-09T04:02:32;14.50;99.90
23721;DHT22;42950;52.134;5.578;2022-09-09T04:04:58;14.50;99.90
23721;DHT22;42950;52.134;5.578;2022-09-09T04:07:31;14.50;99.90
23721;DHT22;42950;52.134;5.578;2022-09-09T04:09:56;14.50;99.90
23721;DHT22;42950;52.134;5.578;2022-09-09T04:12:22;14.50;99.90
23721;DHT22;42950;52.134;5.578;2022-09-09T04:14:48;14.50;99.90
23721;DHT22;42950;52.134;5.578;2022-09-09T04:17:13;14.50;99.90
23721;DHT22;42950;52.134;5.578;2022-09-09T04:19:39;14.50;99.90
23721;DHT22;42950;52.134;5.578;2022-09-09T04:22:05;14.50;99.90
23721;DHT22;42950;52.134;5.578;2022-09-09T04:24:31;14.50;99.90
23721;DHT22;42950;52.134;5.578;2022-09-09T04:26:57;14.50;99.90
23721;DHT22;42950;52.134;5.578;2022-09-09T04:29:22;14.50;99.90
23721;DHT22;42950;52.134;5.578;2022-09-09T04:31:48;14.50;99.90
23721;DHT22;42950;52.134;5.578;2022-09-09T04:34:14;14.60;99.90
23721;DHT22;42950;52.134;5.578;2022-09-09T04:36:39;14.60;99.90
23721;DHT22;42950;52.134;5.578;2022-09-09T04:39:06;14.60;99.90
23721;DHT22;42950;52.134;5.578;2022-09-09T04:41:31;14.60;99.90
23721;DHT22;42950;52.134;5.578;2022-09-09T04:43:57;14.60;99.90
23721;DHT22;42950;52.134;5.578;2022-09-09T04:46:24;14.60;99.90
23721;DHT22;42950;52.134;5.578;2022-09-09T04:48:50;14.60;99.90
23721;DHT22;42950;52.134;5.578;2022-09-09T04:51:17;14.60;99.90
23721;DHT22;42950;52.134;5.578;2022-09-09T04:53:43;14.50;99.90
23721;DHT22;42950;52.134;5.578;2022-09-09T04:56:14;14.60;99.90
23721;DHT22;42950;52.134;5.578;2022-09-09T04:58:41;14.60;99.90
23721;DHT22;42950;52.134;5.578;2022-09-09T05:01:28;14.70;99.90
23721;DHT22;42950;52.134;5.578;2022-09-09T05:03:54;14.70;99.90
23721;DHT22;42950;52.134;5.578;2022-09-09T05:06:21;14.60;99.90
23721;DHT22;42950;52.134;5.578;2022-09-09T05:08:47;14.60;99.90
23721;DHT22;42950;52.134;5.578;2022-09-09T05:11:18;14.60;99.90
23721;DHT22;42950;52.134;5.578;2022-09-09T05:13:45;14.70;99.90
23721;DHT22;42950;52.134;5.578;2022-09-09T05:16:12;14.70;99.90
23721;DHT22;42950;52.134;5.578;2022-09-09T05:18:39;14.70;99.90
23721;DHT22;42950;52.134;5.578;2022-09-09T05:21:04;14.70;99.90
23721;DHT22;42950;52.134;5.578;2022-09-09T05:23:32;14.60;99.90
23721;DHT22;42950;52.134;5.578;2022-09-09T05:25:59;14.60;99.90
23721;DHT22;42950;52.134;5.578;2022-09-09T05:28:26;14.50;99.90
23721;DHT22;42950;52.134;5.578;2022-09-09T05:31:03;14.60;99.90
23721;DHT22;42950;52.134;5.578;2022-09-09T05:33:34;14.60;99.90
23721;DHT22;42950;52.134;5.578;2022-09-09T05:36:11;14.60;99.90
23721;DHT22;42950;52.134;5.578;2022-09-09T05:38:43;14.60;99.90
23721;DHT22;42950;52.134;5.578;2022-09-09T05:41:09;14.60;99.90
23721;DHT22;42950;52.134;5.578;2022-09-09T05:43:37;14.60;99.90
23721;DHT22;42950;52.134;5.578;2022-09-09T05:46:23;14.60;99.90
23721;DHT22;42950;52.134;5.578;2022-09-09T05:48:51;14.70;99.90
23721;DHT22;42950;52.134;5.578;2022-09-09T05:51:20;14.70;99.90
23721;DHT22;42950;52.134;5.578;2022-09-09T05:53:47;14.70;99.90
23721;DHT22;42950;52.134;5.578;2022-09-09T05:56:19;14.80;99.90
23721;DHT22;42950;52.134;5.578;2022-09-09T05:58:46;14.80;99.90
23721;DHT22;42950;52.134;5.578;2022-09-09T06:01:17;14.80;99.90
23721;DHT22;42950;52.134;5.578;2022-09-09T06:03:44;14.80;99.90
23721;DHT22;42950;52.134;5.578;2022-09-09T06:06:17;14.90;99.90
23721;DHT22;42950;52.134;5.578;2022-09-09T06:08:44;14.90;99.90
23721;DHT22;42950;52.134;5.578;2022-09-09T06:11:25;14.90;99.90
23721;DHT22;42950;52.134;5.578;2022-09-09T06:13:51;14.90;99.90
23721;DHT22;42950;52.134;5.578;2022-09-09T06:16:23;14.90;99.90
23721;DHT22;42950;52.134;5.578;2022-09-09T06:18:50;14.90;99.90
23721;DHT22;42950;52.134;5.578;2022-09-09T06:21:24;15.00;99.90
23721;DHT22;42950;52.134;5.578;2022-09-09T06:23:51;15.10;99.90
23721;DHT22;42950;52.134;5.578;2022-09-09T06:26:21;15.10;99.90
23721;DHT22;42950;52.134;5.578;2022-09-09T06:28:50;15.20;99.90
23721;DHT22;42950;52.134;5.578;2022-09-09T06:31:17;15.20;99.90
23721;DHT22;42950;52.134;5.578;2022-09-09T06:33:54;15.30;99.90
23721;DHT22;42950;52.134;5.578;2022-09-09T06:36:37;15.40;99.90
23721;DHT22;42950;52.134;5.578;2022-09-09T06:39:04;15.40;99.90
23721;DHT22;42950;52.134;5.578;2022-09-09T06:41:31;15.40;99.90
23721;DHT22;42950;52.134;5.578;2022-09-09T06:43:58;15.50;99.90
23721;DHT22;42950;52.134;5.578;2022-09-09T06:46:27;15.50;99.90
23721;DHT22;42950;52.134;5.578;2022-09-09T06:48:53;15.50;99.90
23721;DHT22;42950;52.134;5.578;2022-09-09T06:51:31;15.60;99.90
23721;DHT22;42950;52.134;5.578;2022-09-09T06:54:00;15.60;99.90
23721;DHT22;42950;52.134;5.578;2022-09-09T06:56:36;15.60;99.90
23721;DHT22;42950;52.134;5.578;2022-09-09T06:59:04;15.70;99.90
23721;DHT22;42950;52.134;5.578;2022-09-09T07:01:38;15.80;99.90
23721;DHT22;42950;52.134;5.578;2022-09-09T07:04:06;15.90;99.90
23721;DHT22;42950;52.134;5.578;2022-09-09T07:06:51;15.90;99.90
23721;DHT22;42950;52.134;5.578;2022-09-09T07:09:17;16.00;99.90
23721;DHT22;42950;52.134;5.578;2022-09-09T07:11:48;16.00;99.90
23721;DHT22;42950;52.134;5.578;2022-09-09T07:14:15;16.10;99.90
23721;DHT22;42950;52.134;5.578;2022-09-09T07:16:42;16.20;99.90
23721;DHT22;42950;52.134;5.578;2022-09-09T07:19:08;16.30;99.90
23721;DHT22;42950;52.134;5.578;2022-09-09T07:21:34;16.40;99.90
23721;DHT22;42950;52.134;5.578;2022-09-09T07:24:00;16.40;99.90
23721;DHT22;42950;52.134;5.578;2022-09-09T07:26:29;16.50;99.90
23721;DHT22;42950;52.134;5.578;2022-09-09T07:28:56;16.60;99.90
23721;DHT22;42950;52.134;5.578;2022-09-09T07:31:31;16.70;99.90
23721;DHT22;42950;52.134;5.578;2022-09-09T07:33:58;16.80;99.90
23721;DHT22;42950;52.134;5.578;2022-09-09T07:38:53;17.00;99.90
23721;DHT22;42950;52.134;5.578;2022-09-09T07:41:23;17.00;99.90
23721;DHT22;42950;52.134;5.578;2022-09-09T07:43:50;17.10;99.90
23721;DHT22;42950;52.134;5.578;2022-09-09T07:46:18;17.10;99.90
23721;DHT22;42950;52.134;5.578;2022-09-09T07:48:48;17.10;99.90
23721;DHT22;42950;52.134;5.578;2022-09-09T07:53:48;17.00;99.90
23721;DHT22;42950;52.134;5.578;2022-09-09T07:56:16;17.10;99.90
23721;DHT22;42950;52.134;5.578;2022-09-09T07:58:47;17.10;99.90
23721;DHT22;42950;52.134;5.578;2022-09-09T08:01:16;17.10;99.90
23721;DHT22;42950;52.134;5.578;2022-09-09T08:03:43;17.20;99.90
23721;DHT22;42950;52.134;5.578;2022-09-09T08:06:10;17.20;99.90
23721;DHT22;42950;52.134;5.578;2022-09-09T08:08:38;17.30;99.90
23721;DHT22;42950;52.134;5.578;2022-09-09T08:11:13;17.30;99.90
23721;DHT22;42950;52.134;5.578;2022-09-09T08:13:41;17.30;99.90
23721;DHT22;42950;52.134;5.578;2022-09-09T08:16:13;17.30;99.90
23721;DHT22;42950;52.134;5.578;2022-09-09T08:18:39;17.30;99.90
23721;DHT22;42950;52.134;5.578;2022-09-09T08:21:13;17.30;99.90
23721;DHT22;42950;52.134;5.578;2022-09-09T08:23:41;17.20;99.90
23721;DHT22;42950;52.134;5.578;2022-09-09T08:26:18;17.20;99.90
23721;DHT22;42950;52.134;5.578;2022-09-09T08:28:48;17.30;99.90
23721;DHT22;42950;52.134;5.578;2022-09-09T08:31:21;17.40;99.90
23721;DHT22;42950;52.134;5.578;2022-09-09T08:33:47;17.40;99.90
23721;DHT22;42950;52.134;5.578;2022-09-09T08:36:19;17.50;99.90
23721;DHT22;42950;52.134;5.578;2022-09-09T08:38:48;17.50;99.90
23721;DHT22;42950;52.134;5.578;2022-09-09T08:41:24;17.50;99.90
23721;DHT22;42950;52.134;5.578;2022-09-09T08:44:14;17.60;99.90
23721;DHT22;42950;52.134;5.578;2022-09-09T08:47:01;17.60;99.90
23721;DHT22;42950;52.134;5.578;2022-09-09T08:49:57;17.60;99.90
23721;DHT22;42950;52.134;5.578;2022-09-09T08:52:27;17.60;99.90
23721;DHT22;42950;52.134;5.578;2022-09-09T08:54:58;17.50;99.90
23721;DHT22;42950;52.134;5.578;2022-09-09T08:57:28;17.50;99.90
23721;DHT22;42950;52.134;5.578;2022-09-09T08:59:55;17.60;99.90
23721;DHT22;42950;52.134;5.578;2022-09-09T09:02:49;17.60;99.90
23721;DHT22;42950;52.134;5.578;2022-09-09T09:07:55;17.70;99.90
23721;DHT22;42950;52.134;5.578;2022-09-09T09:10:48;17.60;99.90
23721;DHT22;42950;52.134;5.578;2022-09-09T09:13:48;17.60;99.90
23721;DHT22;42950;52.134;5.578;2022-09-09T09:18:48;17.70;99.90
23721;DHT22;42950;52.134;5.578;2022-09-09T09:23:59;17.80;99.90
23721;DHT22;42950;52.134;5.578;2022-09-09T09:26:35;17.90;99.90
23721;DHT22;42950;52.134;5.578;2022-09-09T09:29:08;17.80;99.90
23721;DHT22;42950;52.134;5.578;2022-09-09T09:31:35;17.80;99.90
23721;DHT22;42950;52.134;5.578;2022-09-09T09:34:00;17.70;99.90
23721;DHT22;42950;52.134;5.578;2022-09-09T09:36:41;17.70;99.90
23721;DHT22;42950;52.134;5.578;2022-09-09T09:39:09;17.70;99.90
23721;DHT22;42950;52.134;5.578;2022-09-09T09:41:36;17.70;99.90
23721;DHT22;42950;52.134;5.578;2022-09-09T09:44:03;17.80;99.90
23721;DHT22;42950;52.134;5.578;2022-09-09T09:46:30;17.90;99.90
23721;DHT22;42950;52.134;5.578;2022-09-09T09:49:04;18.00;99.90
23721;DHT22;42950;52.134;5.578;2022-09-09T09:51:32;18.00;99.90
23721;DHT22;42950;52.134;5.578;2022-09-09T09:56:39;18.00;99.90
23721;DHT22;42950;52.134;5.578;2022-09-09T09:59:37;17.90;99.90
23721;DHT22;42950;52.134;5.578;2022-09-09T10:02:17;18.00;99.90
23721;DHT22;42950;52.134;5.578;2022-09-09T10:04:43;18.10;99.90
23721;DHT22;42950;52.134;5.578;2022-09-09T10:07:19;18.20;99.90
23721;DHT22;42950;52.134;5.578;2022-09-09T10:09:50;18.20;99.90
23721;DHT22;42950;52.134;5.578;2022-09-09T10:12:24;18.20;99.90
23721;DHT22;42950;52.134;5.578;2022-09-09T10:18:04;18.20;99.90
23721;DHT22;42950;52.134;5.578;2022-09-09T10:20:51;18.30;99.90
23721;DHT22;42950;52.134;5.578;2022-09-09T10:23:29;18.20;99.90
23721;DHT22;42950;52.134;5.578;2022-09-09T10:29:08;18.20;99.90
23721;DHT22;42950;52.134;5.578;2022-09-09T10:57:00;17.50;99.90
23721;DHT22;42950;52.134;5.578;2022-09-09T10:59:35;17.40;99.90
23721;DHT22;42950;52.134;5.578;2022-09-09T11:02:24;17.30;99.90
23721;DHT22;42950;52.134;5.578;2022-09-09T11:04:59;17.40;99.90
23721;DHT22;42950;52.134;5.578;2022-09-09T11:10:14;17.50;99.90
23721;DHT22;42950;52.134;5.578;2022-09-09T11:12:43;17.60;99.90
23721;DHT22;42950;52.134;5.578;2022-09-09T11:15:22;17.70;99.90
23721;DHT22;42950;52.134;5.578;2022-09-09T11:17:56;17.90;99.90
23721;DHT22;42950;52.134;5.578;2022-09-09T11:20:25;18.10;99.90
23721;DHT22;42950;52.134;5.578;2022-09-09T11:23:22;18.30;99.90
23721;DHT22;42950;52.134;5.578;2022-09-09T11:25:50;18.40;99.90
23721;DHT22;42950;52.134;5.578;2022-09-09T11:31:25;18.80;99.90
23721;DHT22;42950;52.134;5.578;2022-09-09T11:42:20;18.60;99.90
23721;DHT22;42950;52.134;5.578;2022-09-09T11:44:46;18.70;99.90
23721;DHT22;42950;52.134;5.578;2022-09-09T11:47:27;18.80;99.90
23721;DHT22;42950;52.134;5.578;2022-09-09T11:52:42;19.00;99.90
23721;DHT22;42950;52.134;5.578;2022-09-09T11:55:32;19.20;99.90
23721;DHT22;42950;52.134;5.578;2022-09-09T12:00:47;19.10;99.90
23721;DHT22;42950;52.134;5.578;2022-09-09T12:03:35;19.00;99.90
23721;DHT22;42950;52.134;5.578;2022-09-09T12:06:27;18.90;99.90
23721;DHT22;42950;52.134;5.578;2022-09-09T12:09:25;18.80;99.90
23721;DHT22;42950;52.134;5.578;2022-09-09T12:11:53;18.80;99.90
23721;DHT22;42950;52.134;5.578;2022-09-09T12:17:23;18.70;99.90
23721;DHT22;42950;52.134;5.578;2022-09-09T12:22:57;18.80;99.90
23721;DHT22;42950;52.134;5.578;2022-09-09T12:33:37;18.80;99.90
23721;DHT22;42950;52.134;5.578;2022-09-09T12:36:11;18.60;99.90
23721;DHT22;42950;52.134;5.578;2022-09-09T12:38:40;18.60;99.90
23721;DHT22;42950;52.134;5.578;2022-09-09T12:41:06;18.50;99.90
23721;DHT22;42950;52.134;5.578;2022-09-09T12:43:32;18.50;99.90
23721;DHT22;42950;52.134;5.578;2022-09-09T12:46:06;18.40;99.90
23721;DHT22;42950;52.134;5.578;2022-09-09T12:48:37;18.40;99.90
23721;DHT22;42950;52.134;5.578;2022-09-09T12:51:05;18.30;99.90
23721;DHT22;42950;52.134;5.578;2022-09-09T12:53:35;18.30;99.90
23721;DHT22;42950;52.134;5.578;2022-09-09T12:56:09;18.40;99.90
23721;DHT22;42950;52.134;5.578;2022-09-09T12:58:37;18.60;99.90
23721;DHT22;42950;52.134;5.578;2022-09-09T13:01:04;18.60;99.90
23721;DHT22;42950;52.134;5.578;2022-09-09T13:03:31;18.60;99.90
23721;DHT22;42950;52.134;5.578;2022-09-09T13:06:09;18.60;99.90
23721;DHT22;42950;52.134;5.578;2022-09-09T13:08:36;18.60;99.90
23721;DHT22;42950;52.134;5.578;2022-09-09T13:11:06;18.50;99.90
23721;DHT22;42950;52.134;5.578;2022-09-09T13:13:41;18.60;99.90
23721;DHT22;42950;52.134;5.578;2022-09-09T13:16:29;18.50;99.90
23721;DHT22;42950;52.134;5.578;2022-09-09T13:18:58;18.60;99.90
23721;DHT22;42950;52.134;5.578;2022-09-09T13:21:39;18.60;99.90
23721;DHT22;42950;52.134;5.578;2022-09-09T13:24:21;18.60;99.90
23721;DHT22;42950;52.134;5.578;2022-09-09T13:27:04;18.50;99.90
23721;DHT22;42950;52.134;5.578;2022-09-09T13:29:31;18.40;99.90
23721;DHT22;42950;52.134;5.578;2022-09-09T13:32:05;18.40;99.90
23721;DHT22;42950;52.134;5.578;2022-09-09T13:34:33;18.40;99.90
23721;DHT22;42950;52.134;5.578;2022-09-09T13:37:01;18.30;99.90
23721;DHT22;42950;52.134;5.578;2022-09-09T13:39:28;18.40;99.90
23721;DHT22;42950;52.134;5.578;2022-09-09T13:41:54;18.30;99.90
23721;DHT22;42950;52.134;5.578;2022-09-09T13:44:39;18.30;99.90
23721;DHT22;42950;52.134;5.578;2022-09-09T13:47:20;18.50;99.90
23721;DHT22;42950;52.134;5.578;2022-09-09T13:49:47;18.60;99.90
23721;DHT22;42950;52.134;5.578;2022-09-09T13:52:15;18.60;99.90
23721;DHT22;42950;52.134;5.578;2022-09-09T13:54:46;18.80;99.90
23721;DHT22;42950;52.134;5.578;2022-09-09T13:57:22;18.80;99.90
23721;DHT22;42950;52.134;5.578;2022-09-09T13:59:48;18.80;99.90
23721;DHT22;42950;52.134;5.578;2022-09-09T14:02:15;18.90;99.90
23721;DHT22;42950;52.134;5.578;2022-09-09T14:04:42;18.80;99.90
23721;DHT22;42950;52.134;5.578;2022-09-09T14:07:14;18.90;99.90
23721;DHT22;42950;52.134;5.578;2022-09-09T14:09:41;18.90;99.90
23721;DHT22;42950;52.134;5.578;2022-09-09T14:12:14;18.90;99.90
23721;DHT22;42950;52.134;5.578;2022-09-09T14:14:42;19.00;99.90
23721;DHT22;42950;52.134;5.578;2022-09-09T14:17:09;19.00;99.90
23721;DHT22;42950;52.134;5.578;2022-09-09T14:19:35;19.00;99.90
23721;DHT22;42950;52.134;5.578;2022-09-09T14:22:02;19.00;99.90
23721;DHT22;42950;52.134;5.578;2022-09-09T14:24:28;19.10;99.90
23721;DHT22;42950;52.134;5.578;2022-09-09T14:26:54;19.10;99.90
23721;DHT22;42950;52.134;5.578;2022-09-09T14:29:20;19.10;99.90
23721;DHT22;42950;52.134;5.578;2022-09-09T14:31:46;19.10;99.90
23721;DHT22;42950;52.134;5.578;2022-09-09T14:34:15;19.10;99.90
23721;DHT22;42950;52.134;5.578;2022-09-09T14:36:41;19.20;99.90
23721;DHT22;42950;52.134;5.578;2022-09-09T14:39:07;19.30;99.90
23721;DHT22;42950;52.134;5.578;2022-09-09T14:41:33;19.30;99.90
23721;DHT22;42950;52.134;5.578;2022-09-09T14:43:59;19.30;99.90
23721;DHT22;42950;52.134;5.578;2022-09-09T14:46:25;19.40;99.90
23721;DHT22;42950;52.134;5.578;2022-09-09T14:48:52;19.40;99.90
23721;DHT22;42950;52.134;5.578;2022-09-09T14:51:20;19.40;99.90
23721;DHT22;42950;52.134;5.578;2022-09-09T14:53:48;19.40;99.90
23721;DHT22;42950;52.134;5.578;2022-09-09T14:56:18;19.40;99.90
23721;DHT22;42950;52.134;5.578;2022-09-09T14:58:44;19.30;99.90
23721;DHT22;42950;52.134;5.578;2022-09-09T15:01:17;19.30;99.90
23721;DHT22;42950;52.134;5.578;2022-09-09T15:03:52;19.30;99.90
23721;DHT22;42950;52.134;5.578;2022-09-09T15:06:20;19.40;99.90
23721;DHT22;42950;52.134;5.578;2022-09-09T15:08:47;19.40;99.90
23721;DHT22;42950;52.134;5.578;2022-09-09T15:11:15;19.40;99.90
23721;DHT22;42950;52.134;5.578;2022-09-09T15:13:42;19.30;99.90
23721;DHT22;42950;52.134;5.578;2022-09-09T15:16:11;19.20;99.90
23721;DHT22;42950;52.134;5.578;2022-09-09T15:18:38;19.10;99.90
23721;DHT22;42950;52.134;5.578;2022-09-09T15:21:10;19.00;99.90
23721;DHT22;42950;52.134;5.578;2022-09-09T15:23:36;19.00;99.90
23721;DHT22;42950;52.134;5.578;2022-09-09T15:26:03;19.00;99.90
23721;DHT22;42950;52.134;5.578;2022-09-09T15:28:32;18.90;99.90
23721;DHT22;42950;52.134;5.578;2022-09-09T15:31:09;18.80;99.90
23721;DHT22;42950;52.134;5.578;2022-09-09T15:33:36;18.80;99.90
23721;DHT22;42950;52.134;5.578;2022-09-09T15:36:19;18.90;99.90
23721;DHT22;42950;52.134;5.578;2022-09-09T15:38:48;19.00;99.90
23721;DHT22;42950;52.134;5.578;2022-09-09T15:41:14;19.10;99.90
23721;DHT22;42950;52.134;5.578;2022-09-09T15:43:45;19.10;99.90
23721;DHT22;42950;52.134;5.578;2022-09-09T15:48:44;19.20;99.90
23721;DHT22;42950;52.134;5.578;2022-09-09T15:51:11;19.30;99.90
23721;DHT22;42950;52.134;5.578;2022-09-09T15:53:37;19.50;99.90
23721;DHT22;42950;52.134;5.578;2022-09-09T15:56:08;19.40;99.90
23721;DHT22;42950;52.134;5.578;2022-09-09T15:58:35;19.40;99.90
23721;DHT22;42950;52.134;5.578;2022-09-09T16:01:06;19.30;99.90
23721;DHT22;42950;52.134;5.578;2022-09-09T16:03:41;19.10;99.90
23721;DHT22;42950;52.134;5.578;2022-09-09T16:06:09;19.00;99.90
23721;DHT22;42950;52.134;5.578;2022-09-09T16:08:36;18.80;99.90
23721;DHT22;42950;52.134;5.578;2022-09-09T16:11:17;18.80;99.90
23721;DHT22;42950;52.134;5.578;2022-09-09T16:13:47;18.70;99.90
23721;DHT22;42950;52.134;5.578;2022-09-09T16:16:15;18.60;99.90
23721;DHT22;42950;52.134;5.578;2022-09-09T16:18:43;18.60;99.90
23721;DHT22;42950;52.134;5.578;2022-09-09T16:21:35;18.60;99.90
23721;DHT22;42950;52.134;5.578;2022-09-09T16:24:02;18.60;99.90
23721;DHT22;42950;52.134;5.578;2022-09-09T16:26:30;18.60;99.90
23721;DHT22;42950;52.134;5.578;2022-09-09T16:28:56;18.60;99.90
23721;DHT22;42950;52.134;5.578;2022-09-09T16:31:25;18.70;99.90
23721;DHT22;42950;52.134;5.578;2022-09-09T16:33:51;18.70;99.90
23721;DHT22;42950;52.134;5.578;2022-09-09T16:36:23;18.70;99.90
23721;DHT22;42950;52.134;5.578;2022-09-09T16:38:53;18.60;99.90
23721;DHT22;42950;52.134;5.578;2022-09-09T16:41:20;18.50;99.90
23721;DHT22;42950;52.134;5.578;2022-09-09T16:43:46;18.40;99.90
23721;DHT22;42950;52.134;5.578;2022-09-09T16:46:17;18.40;99.90
23721;DHT22;42950;52.134;5.578;2022-09-09T16:48:45;18.40;99.90
23721;DHT22;42950;52.134;5.578;2022-09-09T16:51:14;18.30;99.90
23721;DHT22;42950;52.134;5.578;2022-09-09T16:53:41;18.30;99.90
23721;DHT22;42950;52.134;5.578;2022-09-09T16:56:12;18.40;99.90
23721;DHT22;42950;52.134;5.578;2022-09-09T16:58:37;18.40;99.90
23721;DHT22;42950;52.134;5.578;2022-09-09T17:01:04;18.30;99.90
23721;DHT22;42950;52.134;5.578;2022-09-09T17:03:30;18.40;99.90
23721;DHT22;42950;52.134;5.578;2022-09-09T17:05:57;18.40;99.90
23721;DHT22;42950;52.134;5.578;2022-09-09T17:08:23;18.30;99.90
23721;DHT22;42950;52.134;5.578;2022-09-09T17:10:49;18.30;99.90
23721;DHT22;42950;52.134;5.578;2022-09-09T17:13:15;18.20;99.90
23721;DHT22;42950;52.134;5.578;2022-09-09T17:15:42;18.20;99.90
23721;DHT22;42950;52.134;5.578;2022-09-09T17:18:10;18.10;99.90
23721;DHT22;42950;52.134;5.578;2022-09-09T17:20:40;18.10;99.90
23721;DHT22;42950;52.134;5.578;2022-09-09T17:23:07;18.00;99.90
23721;DHT22;42950;52.134;5.578;2022-09-09T17:25:33;18.10;99.90
23721;DHT22;42950;52.134;5.578;2022-09-09T17:27:59;18.00;99.90
23721;DHT22;42950;52.134;5.578;2022-09-09T17:30:26;18.10;99.90
23721;DHT22;42950;52.134;5.578;2022-09-09T17:32:52;18.10;99.90
23721;DHT22;42950;52.134;5.578;2022-09-09T17:35:18;18.20;99.90
23721;DHT22;42950;52.134;5.578;2022-09-09T17:37:44;18.00;99.90
23721;DHT22;42950;52.134;5.578;2022-09-09T17:40:10;18.00;99.90
23721;DHT22;42950;52.134;5.578;2022-09-09T17:42:36;18.10;99.90
23721;DHT22;42950;52.134;5.578;2022-09-09T17:45:02;18.10;99.90
23721;DHT22;42950;52.134;5.578;2022-09-09T17:47:28;18.10;99.90
23721;DHT22;42950;52.134;5.578;2022-09-09T17:49:56;18.10;99.90
23721;DHT22;42950;52.134;5.578;2022-09-09T17:52:21;18.10;99.90